Grand Holiday — CQNH — position and weather

sailwx.info

Track history (hours):
 
Tides and Currents Weather Stations Pressure Air Temp Water Temp Dewpoint Dewpoint Depression Visibility Wind Speed Wind Dir Waves Ship Positions

Grand Holiday

Last reported at 2014-Sep-16 10:27 UTC. Time now 2014-Sep-16 11:26 UTC.
Position N 43°42' E 007°19'.

Length 222 m; draft 7.7 m.

Type: Passenger vessel. MMSI: 255803790.

Date/timePositionNaut miles runAvg speedWind from/ knotsBaromVisibWave heightAir tempDewpointWater temp
2014-Sep-16 10:27N 43°42' E 007°19'0 0.1
2014-Sep-16 09:33N 43°42' E 007°19'0 0.0
2014-Sep-16 08:20N 43°42' E 007°19'0 0.0
2014-Sep-16 07:32N 43°42' E 007°19'0 0.0
2014-Sep-16 06:31N 43°42' E 007°19'0 0.0
2014-Sep-16 05:33N 43°42' E 007°19'4 3.9
2014-Sep-16 04:33N 43°38' E 007°18'8 8.1
2014-Sep-16 03:33N 43°30' E 007°19'9 9.4
2014-Sep-16 02:33N 43°20' E 007°16'1110.8
2014-Sep-16 01:33N 43°12' E 007°06'1110.7
2014-Sep-16 00:33N 43°05' E 006°56'1010.4
2014-Sep-15 23:33N 42°60' E 006°44'1010.4
2014-Sep-15 22:33N 42°56' E 006°30'12 9.8
2014-Sep-15 21:22N 42°54' E 006°15'8 9.7
2014-Sep-15 20:31N 42°54' E 006°04'1210.0
2014-Sep-15 19:18N 42°56' E 005°47'2513.8
2014-Sep-15 17:29N 43°08' E 005°17'1011.0
2014-Sep-15 16:34N 43°18' E 005°14'5 4.5
2014-Sep-15 15:22N 43°21' E 005°20'0 0.0
2014-Sep-15 14:31N 43°21' E 005°20'0 0.0
2014-Sep-15 13:27N 43°21' E 005°20'0 0.0
2014-Sep-15 12:21N 43°21' E 005°20'0 0.0
2014-Sep-15 11:26N 43°21' E 005°20'0 0.0
2014-Sep-15 10:20N 43°21' E 005°20'0 0.0
2014-Sep-15 09:31N 43°21' E 005°20'0 0.0
2014-Sep-15 07:31N 43°21' E 005°20'0 0.0
2014-Sep-15 06:30N 43°21' E 005°20'4 4.4
2014-Sep-15 05:33N 43°19' E 005°15'7 7.0
2014-Sep-15 04:33N 43°13' E 005°10'8 8.2
2014-Sep-15 03:33N 43°06' E 005°04'6011.1
2014-Sep-14 22:09N 42°20' E 004°12'3116.9
2014-Sep-14 20:18N 41°56' E 003°45'1216.3
2014-Sep-14 19:33N 41°46' E 003°35'1716.8
2014-Sep-14 18:33N 41°38' E 003°15'1917.0
2014-Sep-14 17:25N 41°29' E 002°52'1617.2
2014-Sep-14 16:29N 41°22' E 002°33'1817.1
2014-Sep-14 15:27N 41°17' E 002°11'32 2.3
2014-Sep-14 01:26N 41°17' E 002°53'3910.0
2014-Sep-13 21:29N 41°17' E 003°46'9 9.3
2014-Sep-13 20:32N 41°17' E 003°57'9 9.3
2014-Sep-13 19:33N 41°17' E 004°10'10 9.7
2014-Sep-13 18:33N 41°18' E 004°22'1110.7
2014-Sep-13 17:32N 41°18' E 004°37'1211.2
2014-Sep-13 16:29N 41°18' E 004°53'1110.3
2014-Sep-13 15:23N 41°18' E 005°07'16556.5
2014-Sep-13 12:29N 41°18' E 001°28'211185.4
2014-Sep-13 11:20N 41°18' E 006°09'184 4.8
2014-Sep-11 21:29N 42°58' E 009°36'1616.7
2014-Sep-11 20:33N 43°14' E 009°38'1717.5
2014-Sep-11 19:34N 43°31' E 009°42'1817.8
2014-Sep-11 18:34N 43°48' E 009°49'1615.9
2014-Sep-11 17:34N 44°04' E 009°51'3 2.7
2014-Sep-11 16:31N 44°06' E 009°50'0 0.0
2014-Sep-11 15:31N 44°06' E 009°50'0 0.0
2014-Sep-11 14:33N 44°06' E 009°50'0 0.0
2014-Sep-11 13:33N 44°06' E 009°50'0 0.0
2014-Sep-11 12:32N 44°06' E 009°50'0 0.0
2014-Sep-11 11:32N 44°06' E 009°50'0 0.0
2014-Sep-11 10:31N 44°06' E 009°50'0 0.0
2014-Sep-11 09:31N 44°06' E 009°50'0 0.0
2014-Sep-11 08:31N 44°06' E 009°50'0 0.0
2014-Sep-11 07:33N 44°06' E 009°50'0 0.0
2014-Sep-11 06:33N 44°06' E 009°50'0 0.0
2014-Sep-11 05:32N 44°06' E 009°50'1 0.9
2014-Sep-11 04:33N 44°06' E 009°50'8 7.7
2014-Sep-11 03:34N 43°59' E 009°56'1515.2
2014-Sep-11 02:34N 43°57' E 009°35'1413.9
2014-Sep-11 01:33N 44°01' E 009°17'9 8.6
2014-Sep-11 00:33N 44°05' E 009°07'1212.2
2014-Sep-10 23:33N 44°11' E 008°52'9 9.2
2014-Sep-10 22:33N 44°15' E 008°41'9 8.4
2014-Sep-10 21:32N 44°19' E 008°29'0 0.0
2014-Sep-10 20:25N 44°19' E 008°29'0 0.0
2014-Sep-10 19:31N 44°19' E 008°29'0 0.0
2014-Sep-10 18:24N 44°19' E 008°29'0 0.0
2014-Sep-10 17:30N 44°19' E 008°29'0 0.0
2014-Sep-10 16:30N 44°19' E 008°29'0 0.0
2014-Sep-10 15:29N 44°19' E 008°29'0 0.0
2014-Sep-10 14:17N 44°19' E 008°29'0 0.0
2014-Sep-10 13:28N 44°19' E 008°29'0 0.0
2014-Sep-10 12:04N 44°19' E 008°29'0 0.0
2014-Sep-10 11:31N 44°19' E 008°29'0 0.0
2014-Sep-10 09:21N 44°19' E 008°29'0 0.0
2014-Sep-10 08:26N 44°19' E 008°29'0 0.0
2014-Sep-10 06:19N 44°19' E 008°29'0 0.0
2014-Sep-10 05:31N 44°19' E 008°29'0 0.0
2014-Sep-10 04:33N 44°19' E 008°29'3 3.1
2014-Sep-10 03:33N 44°16' E 008°32'9 8.4
2014-Sep-10 02:28N 44°07' E 008°32'1010.9
2014-Sep-10 01:33N 43°57' E 008°31'1111.4
2014-Sep-10 00:34N 43°47' E 008°23'4410.2
2014-Sep-09 20:17N 43°38' E 007°23'5 5.6
2014-Sep-09 19:26N 43°42' E 007°19'0 0.0
2014-Sep-09 15:30N 43°42' E 007°19'0 0.0
2014-Sep-09 14:30N 43°42' E 007°19'0 0.0
2014-Sep-09 13:23N 43°42' E 007°19'0 0.0
2014-Sep-09 12:23N 43°42' E 007°19'0 0.0
2014-Sep-09 11:28N 43°42' E 007°19'0 0.0
2014-Sep-09 10:28N 43°42' E 007°19'0 0.0
2014-Sep-09 09:28N 43°42' E 007°19'0 0.0
2014-Sep-09 08:33N 43°42' E 007°19'0 0.0
2014-Sep-09 07:27N 43°42' E 007°19'0 0.0
2014-Sep-09 06:32N 43°42' E 007°19'0 0.0
2014-Sep-09 05:33N 43°42' E 007°19'6 6.3
2014-Sep-09 04:33N 43°35' E 007°18'10 9.8
2014-Sep-09 03:33N 43°26' E 007°18'1310.9
2014-Sep-09 02:23N 43°15' E 007°09'910.8
2014-Sep-09 01:33N 43°08' E 007°01'1110.7
2014-Sep-09 00:33N 43°01' E 006°50'1110.7
2014-Sep-08 23:33N 42°56' E 006°37'1110.6
2014-Sep-08 22:33N 42°54' E 006°23'1110.8
2014-Sep-08 21:32N 42°54' E 006°07'1111.4
2014-Sep-08 20:33N 42°56' E 005°52'1310.9
2014-Sep-08 19:23N 42°60' E 005°36'1011.9
2014-Sep-08 18:32N 43°05' E 005°24'1111.5
2014-Sep-08 17:34N 43°11' E 005°11'9 9.2
2014-Sep-08 16:32N 43°20' E 005°15'4 3.4
2014-Sep-08 15:25N 43°21' E 005°20'0 0.0
2014-Sep-08 14:31N 43°21' E 005°20'0 0.0
2014-Sep-08 13:24N 43°21' E 005°20'0 0.0
2014-Sep-08 11:30N 43°21' E 005°20'0 0.0
2014-Sep-08 10:23N 43°21' E 005°20'0 0.0
2014-Sep-08 09:29N 43°21' E 005°20'0 0.0
2014-Sep-08 08:10N 43°21' E 005°20'0 0.0
2014-Sep-08 07:28N 43°21' E 005°20'0 0.2
2014-Sep-08 06:30N 43°21' E 005°20'5 5.2
2014-Sep-08 05:33N 43°18' E 005°14'7 6.7
2014-Sep-08 04:33N 43°12' E 005°10'9 9.0
2014-Sep-08 03:30N 43°05' E 005°02'8413.3
2014-Sep-07 21:09N 41°60' E 003°49'1015.7
2014-Sep-07 20:31N 41°52' E 003°41'1514.9
2014-Sep-07 19:30N 41°42' E 003°26'1414.4
2014-Sep-07 18:32N 41°35' E 003°10'1414.7
2014-Sep-07 17:33N 41°29' E 002°52'1515.3
2014-Sep-07 16:33N 41°22' E 002°34'1414.3
2014-Sep-07 15:34N 41°16' E 002°17'7 6.8
2014-Sep-07 14:32N 41°21' E 002°11'0 0.0
2014-Sep-07 12:30N 41°21' E 002°11'0 0.0
2014-Sep-07 11:30N 41°21' E 002°11'0 0.0
2014-Sep-07 09:23N 41°21' E 002°11'0 0.0
2014-Sep-07 06:16N 41°21' E 002°11'2 1.9
2014-Sep-07 05:24N 41°20' E 002°10'7 7.7
2014-Sep-07 04:32N 41°17' E 002°18'9 8.5
2014-Sep-07 03:31N 41°17' E 002°29'8 8.7
2014-Sep-07 02:33N 41°17' E 002°41'9 9.3
2014-Sep-07 01:33N 41°17' E 002°53'1210.7
2014-Sep-07 00:28N 41°17' E 003°09'1010.0
2014-Sep-06 23:25N 41°17' E 003°23'9 9.9
2014-Sep-06 22:33N 41°17' E 003°34'11 9.8
2014-Sep-06 21:23N 41°17' E 003°49'8 9.5
2014-Sep-06 20:30N 41°17' E 004°00'10 9.7
2014-Sep-06 19:28N 41°17' E 004°14'9 9.4
2014-Sep-06 18:33N 41°18' E 004°25'10 9.9
2014-Sep-06 17:33N 41°17' E 004°38'1210.5
2014-Sep-06 16:22N 41°18' E 004°55'3511.6
2014-Sep-06 13:21N 41°17' E 005°42'1515.7
2014-Sep-06 12:25N 41°18' E 006°01'2015.0
2014-Sep-06 11:07N 41°18' E 006°27'  
Track history (hours):
 
Tides and Currents Weather Stations Pressure Air Temp Water Temp Dewpoint Dewpoint Depression Visibility Wind Speed Wind Dir Waves Ship Positions

Grand Holiday

Last reported at 2014-Sep-16 10:27 UTC. Time now 2014-Sep-16 11:26 UTC.
Position N 43°42' E 007°19'.

Length 222 m; draft 7.7 m.

Type: Passenger vessel. MMSI: 255803790.

Date/timePositionNaut miles runAvg speedWind from/ knotsBaromVisibWave heightAir tempDewpointWater temp
2014-Sep-16 10:27N 43°42' E 007°19'0 0.1
2014-Sep-16 09:33N 43°42' E 007°19'0 0.0
2014-Sep-16 08:20N 43°42' E 007°19'0 0.0
2014-Sep-16 07:32N 43°42' E 007°19'0 0.0
2014-Sep-16 06:31N 43°42' E 007°19'0 0.0
2014-Sep-16 05:33N 43°42' E 007°19'4 3.9
2014-Sep-16 04:33N 43°38' E 007°18'8 8.1
2014-Sep-16 03:33N 43°30' E 007°19'9 9.4
2014-Sep-16 02:33N 43°20' E 007°16'1110.8
2014-Sep-16 01:33N 43°12' E 007°06'1110.7
2014-Sep-16 00:33N 43°05' E 006°56'1010.4
2014-Sep-15 23:33N 42°60' E 006°44'1010.4
2014-Sep-15 22:33N 42°56' E 006°30'12 9.8
2014-Sep-15 21:22N 42°54' E 006°15'8 9.7
2014-Sep-15 20:31N 42°54' E 006°04'1210.0
2014-Sep-15 19:18N 42°56' E 005°47'2513.8
2014-Sep-15 17:29N 43°08' E 005°17'1011.0
2014-Sep-15 16:34N 43°18' E 005°14'5 4.5
2014-Sep-15 15:22N 43°21' E 005°20'0 0.0
2014-Sep-15 14:31N 43°21' E 005°20'0 0.0
2014-Sep-15 13:27N 43°21' E 005°20'0 0.0
2014-Sep-15 12:21N 43°21' E 005°20'0 0.0
2014-Sep-15 11:26N 43°21' E 005°20'0 0.0
2014-Sep-15 10:20N 43°21' E 005°20'0 0.0
2014-Sep-15 09:31N 43°21' E 005°20'0 0.0
2014-Sep-15 07:31N 43°21' E 005°20'0 0.0
2014-Sep-15 06:30N 43°21' E 005°20'4 4.4
2014-Sep-15 05:33N 43°19' E 005°15'7 7.0
2014-Sep-15 04:33N 43°13' E 005°10'8 8.2
2014-Sep-15 03:33N 43°06' E 005°04'6011.1
2014-Sep-14 22:09N 42°20' E 004°12'3116.9
2014-Sep-14 20:18N 41°56' E 003°45'1216.3
2014-Sep-14 19:33N 41°46' E 003°35'1716.8
2014-Sep-14 18:33N 41°38' E 003°15'1917.0
2014-Sep-14 17:25N 41°29' E 002°52'1617.2
2014-Sep-14 16:29N 41°22' E 002°33'1817.1
2014-Sep-14 15:27N 41°17' E 002°11'32 2.3
2014-Sep-14 01:26N 41°17' E 002°53'3910.0
2014-Sep-13 21:29N 41°17' E 003°46'9 9.3
2014-Sep-13 20:32N 41°17' E 003°57'9 9.3
2014-Sep-13 19:33N 41°17' E 004°10'10 9.7
2014-Sep-13 18:33N 41°18' E 004°22'1110.7
2014-Sep-13 17:32N 41°18' E 004°37'1211.2
2014-Sep-13 16:29N 41°18' E 004°53'1110.3
2014-Sep-13 15:23N 41°18' E 005°07'16556.5
2014-Sep-13 12:29N 41°18' E 001°28'211185.4
2014-Sep-13 11:20N 41°18' E 006°09'184 4.8
2014-Sep-11 21:29N 42°58' E 009°36'1616.7
2014-Sep-11 20:33N 43°14' E 009°38'1717.5
2014-Sep-11 19:34N 43°31' E 009°42'1817.8
2014-Sep-11 18:34N 43°48' E 009°49'1615.9
2014-Sep-11 17:34N 44°04' E 009°51'3 2.7
2014-Sep-11 16:31N 44°06' E 009°50'0 0.0
2014-Sep-11 15:31N 44°06' E 009°50'0 0.0
2014-Sep-11 14:33N 44°06' E 009°50'0 0.0
2014-Sep-11 13:33N 44°06' E 009°50'0 0.0
2014-Sep-11 12:32N 44°06' E 009°50'0 0.0
2014-Sep-11 11:32N 44°06' E 009°50'0 0.0
2014-Sep-11 10:31N 44°06' E 009°50'0 0.0
2014-Sep-11 09:31N 44°06' E 009°50'0 0.0
2014-Sep-11 08:31N 44°06' E 009°50'0 0.0
2014-Sep-11 07:33N 44°06' E 009°50'0 0.0
2014-Sep-11 06:33N 44°06' E 009°50'0 0.0
2014-Sep-11 05:32N 44°06' E 009°50'1 0.9
2014-Sep-11 04:33N 44°06' E 009°50'8 7.7
2014-Sep-11 03:34N 43°59' E 009°56'1515.2
2014-Sep-11 02:34N 43°57' E 009°35'1413.9
2014-Sep-11 01:33N 44°01' E 009°17'9 8.6
2014-Sep-11 00:33N 44°05' E 009°07'1212.2
2014-Sep-10 23:33N 44°11' E 008°52'9 9.2
2014-Sep-10 22:33N 44°15' E 008°41'9 8.4
2014-Sep-10 21:32N 44°19' E 008°29'0 0.0
2014-Sep-10 20:25N 44°19' E 008°29'0 0.0
2014-Sep-10 19:31N 44°19' E 008°29'0 0.0
2014-Sep-10 18:24N 44°19' E 008°29'0 0.0
2014-Sep-10 17:30N 44°19' E 008°29'0 0.0
2014-Sep-10 16:30N 44°19' E 008°29'0 0.0
2014-Sep-10 15:29N 44°19' E 008°29'0 0.0
2014-Sep-10 14:17N 44°19' E 008°29'0 0.0
2014-Sep-10 13:28N 44°19' E 008°29'0 0.0
2014-Sep-10 12:04N 44°19' E 008°29'0 0.0
2014-Sep-10 11:31N 44°19' E 008°29'0 0.0
2014-Sep-10 09:21N 44°19' E 008°29'0 0.0
2014-Sep-10 08:26N 44°19' E 008°29'0 0.0
2014-Sep-10 06:19N 44°19' E 008°29'0 0.0
2014-Sep-10 05:31N 44°19' E 008°29'0 0.0
2014-Sep-10 04:33N 44°19' E 008°29'3 3.1
2014-Sep-10 03:33N 44°16' E 008°32'9 8.4
2014-Sep-10 02:28N 44°07' E 008°32'1010.9
2014-Sep-10 01:33N 43°57' E 008°31'1111.4
2014-Sep-10 00:34N 43°47' E 008°23'4410.2
2014-Sep-09 20:17N 43°38' E 007°23'5 5.6
2014-Sep-09 19:26N 43°42' E 007°19'0 0.0
2014-Sep-09 15:30N 43°42' E 007°19'0 0.0
2014-Sep-09 14:30N 43°42' E 007°19'0 0.0
2014-Sep-09 13:23N 43°42' E 007°19'0 0.0
2014-Sep-09 12:23N 43°42' E 007°19'0 0.0
2014-Sep-09 11:28N 43°42' E 007°19'0 0.0
2014-Sep-09 10:28N 43°42' E 007°19'0 0.0
2014-Sep-09 09:28N 43°42' E 007°19'0 0.0
2014-Sep-09 08:33N 43°42' E 007°19'0 0.0
2014-Sep-09 07:27N 43°42' E 007°19'0 0.0
2014-Sep-09 06:32N 43°42' E 007°19'0 0.0
2014-Sep-09 05:33N 43°42' E 007°19'6 6.3
2014-Sep-09 04:33N 43°35' E 007°18'10 9.8
2014-Sep-09 03:33N 43°26' E 007°18'1310.9
2014-Sep-09 02:23N 43°15' E 007°09'910.8
2014-Sep-09 01:33N 43°08' E 007°01'1110.7
2014-Sep-09 00:33N 43°01' E 006°50'1110.7
2014-Sep-08 23:33N 42°56' E 006°37'1110.6
2014-Sep-08 22:33N 42°54' E 006°23'1110.8
2014-Sep-08 21:32N 42°54' E 006°07'1111.4
2014-Sep-08 20:33N 42°56' E 005°52'1310.9
2014-Sep-08 19:23N 42°60' E 005°36'1011.9
2014-Sep-08 18:32N 43°05' E 005°24'1111.5
2014-Sep-08 17:34N 43°11' E 005°11'9 9.2
2014-Sep-08 16:32N 43°20' E 005°15'4 3.4
2014-Sep-08 15:25N 43°21' E 005°20'0 0.0
2014-Sep-08 14:31N 43°21' E 005°20'0 0.0
2014-Sep-08 13:24N 43°21' E 005°20'0 0.0
2014-Sep-08 11:30N 43°21' E 005°20'0 0.0
2014-Sep-08 10:23N 43°21' E 005°20'0 0.0
2014-Sep-08 09:29N 43°21' E 005°20'0 0.0
2014-Sep-08 08:10N 43°21' E 005°20'0 0.0
2014-Sep-08 07:28N 43°21' E 005°20'0 0.2
2014-Sep-08 06:30N 43°21' E 005°20'5 5.2
2014-Sep-08 05:33N 43°18' E 005°14'7 6.7
2014-Sep-08 04:33N 43°12' E 005°10'9 9.0
2014-Sep-08 03:30N 43°05' E 005°02'8413.3
2014-Sep-07 21:09N 41°60' E 003°49'1015.7
2014-Sep-07 20:31N 41°52' E 003°41'1514.9
2014-Sep-07 19:30N 41°42' E 003°26'1414.4
2014-Sep-07 18:32N 41°35' E 003°10'1414.7
2014-Sep-07 17:33N 41°29' E 002°52'1515.3
2014-Sep-07 16:33N 41°22' E 002°34'1414.3
2014-Sep-07 15:34N 41°16' E 002°17'7 6.8
2014-Sep-07 14:32N 41°21' E 002°11'0 0.0
2014-Sep-07 12:30N 41°21' E 002°11'0 0.0
2014-Sep-07 11:30N 41°21' E 002°11'0 0.0
2014-Sep-07 09:23N 41°21' E 002°11'0 0.0
2014-Sep-07 06:16N 41°21' E 002°11'2 1.9
2014-Sep-07 05:24N 41°20' E 002°10'7 7.7
2014-Sep-07 04:32N 41°17' E 002°18'9 8.5
2014-Sep-07 03:31N 41°17' E 002°29'8 8.7
2014-Sep-07 02:33N 41°17' E 002°41'9 9.3
2014-Sep-07 01:33N 41°17' E 002°53'1210.7
2014-Sep-07 00:28N 41°17' E 003°09'1010.0
2014-Sep-06 23:25N 41°17' E 003°23'9 9.9
2014-Sep-06 22:33N 41°17' E 003°34'11 9.8
2014-Sep-06 21:23N 41°17' E 003°49'8 9.5
2014-Sep-06 20:30N 41°17' E 004°00'10 9.7
2014-Sep-06 19:28N 41°17' E 004°14'9 9.4
2014-Sep-06 18:33N 41°18' E 004°25'10 9.9
2014-Sep-06 17:33N 41°17' E 004°38'1210.5
2014-Sep-06 16:22N 41°18' E 004°55'3511.6
2014-Sep-06 13:21N 41°17' E 005°42'1515.7
2014-Sep-06 12:25N 41°18' E 006°01'2015.0
2014-Sep-06 11:07N 41°18' E 006°27'  

Dump ship's entire track history